createdAt,value
2023-03-23T00:00:01.592Z,39.01
2023-03-23T00:01:01.669Z,38.96
2023-03-23T00:02:01.744Z,38.97
2023-03-23T00:03:01.791Z,38.93
2023-03-23T00:04:01.842Z,38.93
2023-03-23T00:05:01.915Z,38.93
2023-03-23T00:06:01.956Z,38.93
2023-03-23T00:07:01.015Z,38.96
2023-03-23T00:08:02.068Z,38.96
2023-03-23T00:09:02.140Z,38.95
2023-03-23T00:10:02.183Z,38.99
2023-03-23T00:11:02.297Z,38.93
2023-03-23T00:12:02.307Z,38.97
2023-03-23T00:13:02.329Z,38.98
2023-03-23T00:14:02.402Z,38.94
2023-03-23T00:15:01.527Z,38.94
2023-03-23T00:16:04.376Z,38.93
2023-03-23T00:17:02.510Z,38.93
2023-03-23T00:18:02.489Z,38.93
2023-03-23T00:19:01.526Z,38.95
2023-03-23T00:20:02.468Z,38.93
2023-03-23T00:21:02.497Z,38.95
2023-03-23T00:22:02.463Z,38.96
2023-03-23T00:23:02.503Z,38.97
2023-03-23T00:24:02.457Z,38.94
2023-03-23T00:25:02.539Z,38.91
2023-03-23T00:26:01.472Z,38.89
2023-03-23T00:27:02.455Z,38.88
2023-03-23T00:28:02.414Z,38.90
2023-03-23T00:29:02.408Z,38.93
2023-03-23T00:30:02.416Z,38.91
2023-03-23T00:31:02.431Z,38.91
2023-03-23T00:32:02.404Z,38.94
2023-03-23T00:33:02.461Z,38.92
2023-03-23T00:34:01.521Z,38.94
2023-03-23T00:35:01.558Z,38.95
2023-03-23T00:36:02.638Z,38.95
2023-03-23T00:37:02.709Z,38.94
2023-03-23T00:38:01.680Z,38.93
2023-03-23T00:39:02.742Z,38.92
2023-03-23T00:40:01.748Z,38.93
2023-03-23T00:41:02.791Z,38.94
2023-03-23T00:42:02.867Z,38.94
2023-03-23T00:43:02.894Z,38.93
2023-03-23T00:44:02.939Z,38.96
2023-03-23T00:45:02.978Z,38.92
2023-03-23T00:46:03.064Z,38.93
2023-03-23T00:47:03.062Z,38.92
2023-03-23T00:48:03.062Z,38.89
2023-03-23T00:49:02.118Z,38.92
2023-03-23T00:50:02.146Z,38.93
2023-03-23T00:51:03.227Z,38.90
2023-03-23T00:52:03.316Z,38.92
2023-03-23T00:53:03.407Z,38.95
2023-03-23T00:54:03.410Z,38.94
2023-03-23T00:55:02.485Z,38.97
2023-03-23T00:56:03.515Z,38.95
2023-03-23T00:57:03.641Z,38.94
2023-03-23T00:58:03.758Z,38.95
2023-03-23T00:59:03.717Z,38.95
2023-03-23T01:00:05.584Z,38.99
2023-03-23T01:01:03.685Z,38.97
2023-03-23T01:02:03.674Z,38.93
2023-03-23T01:03:03.666Z,38.92
2023-03-23T01:04:02.660Z,38.90
2023-03-23T01:05:02.641Z,38.88
2023-03-23T01:06:03.649Z,38.89
2023-03-23T01:07:03.646Z,38.90
2023-03-23T01:08:03.629Z,38.91
2023-03-23T01:09:02.645Z,38.90
2023-03-23T01:10:03.596Z,38.92
2023-03-23T01:11:03.605Z,38.91
2023-03-23T01:12:02.593Z,38.90
2023-03-23T01:13:03.589Z,38.93
2023-03-23T01:14:03.601Z,38.92
2023-03-23T01:15:03.575Z,38.92
2023-03-23T01:16:03.551Z,38.90
2023-03-23T01:17:03.553Z,38.90
2023-03-23T01:18:03.564Z,38.90
2023-03-23T01:19:03.548Z,38.92
2023-03-23T01:20:03.534Z,38.88
2023-03-23T01:21:02.532Z,38.91
2023-03-23T01:22:03.520Z,38.89
2023-03-23T01:23:03.565Z,38.92
2023-03-23T01:24:03.512Z,38.88
2023-03-23T01:25:03.523Z,38.90
2023-03-23T01:26:03.513Z,38.90
2023-03-23T01:27:03.507Z,38.86
2023-03-23T01:28:03.514Z,38.89
2023-03-23T01:29:02.492Z,38.91
2023-03-23T01:30:03.509Z,38.89
2023-03-23T01:31:14.137Z,38.93
2023-03-23T01:32:03.511Z,38.95
2023-03-23T01:33:03.557Z,38.92
2023-03-23T01:34:03.569Z,38.93
2023-03-23T01:35:03.534Z,38.90
2023-03-23T01:36:03.537Z,38.87
2023-03-23T01:37:02.472Z,38.89
2023-03-23T01:38:03.509Z,38.88
2023-03-23T01:39:03.461Z,38.88
2023-03-23T01:40:03.527Z,38.86
2023-03-23T01:41:03.475Z,38.88
2023-03-23T01:42:03.460Z,38.89
2023-03-23T01:43:03.432Z,38.92
2023-03-23T01:44:02.414Z,38.92
2023-03-23T01:45:03.410Z,38.93
2023-03-23T01:46:03.432Z,38.92
2023-03-23T01:47:03.411Z,38.86
2023-03-23T01:48:02.439Z,38.92
2023-03-23T01:49:03.413Z,38.87
2023-03-23T01:50:03.395Z,38.87
2023-03-23T01:51:02.392Z,38.87
2023-03-23T01:52:03.370Z,38.87
2023-03-23T01:53:02.352Z,38.89
2023-03-23T01:54:03.385Z,38.89
2023-03-23T01:55:03.376Z,38.91
2023-03-23T01:56:03.338Z,38.92
2023-03-23T01:57:03.363Z,38.88
2023-03-23T01:58:03.331Z,38.88
2023-03-23T01:59:03.311Z,38.90
2023-03-23T02:00:03.303Z,38.85
2023-03-23T02:01:03.328Z,38.89
2023-03-23T02:02:02.308Z,38.86
2023-03-23T02:03:03.310Z,38.89
2023-03-23T02:04:03.294Z,38.89
2023-03-23T02:05:03.278Z,38.92
2023-03-23T02:06:03.277Z,38.88
2023-03-23T02:07:03.289Z,38.91
2023-03-23T02:08:03.276Z,38.87
2023-03-23T02:09:10.641Z,38.89
2023-03-23T02:10:03.253Z,38.86
2023-03-23T02:11:03.242Z,38.87
2023-03-23T02:12:03.243Z,38.91
2023-03-23T02:13:03.266Z,38.91
2023-03-23T02:14:03.429Z,38.89
2023-03-23T02:15:03.209Z,38.89
2023-03-23T02:16:02.208Z,38.90
2023-03-23T02:17:03.219Z,38.86
2023-03-23T02:18:03.236Z,38.86
2023-03-23T02:19:02.185Z,38.86
2023-03-23T02:20:03.183Z,38.86
2023-03-23T02:21:03.166Z,38.84
2023-03-23T02:22:03.170Z,38.88
2023-03-23T02:23:03.161Z,38.86
2023-03-23T02:24:03.166Z,38.89
2023-03-23T02:25:02.157Z,38.86
2023-03-23T02:26:03.152Z,38.87
2023-03-23T02:27:03.160Z,38.86
2023-03-23T02:28:03.124Z,38.85
2023-03-23T02:29:02.147Z,38.86
2023-03-23T02:30:03.115Z,38.87
2023-03-23T02:31:03.112Z,38.88
2023-03-23T02:32:03.112Z,38.85
2023-03-23T02:33:03.101Z,38.86
2023-03-23T02:34:03.108Z,38.84
2023-03-23T02:35:03.072Z,38.86
2023-03-23T02:36:03.090Z,38.88
2023-03-23T02:37:02.063Z,38.83
2023-03-23T02:38:03.066Z,38.85
2023-03-23T02:39:02.061Z,38.87
2023-03-23T02:40:03.068Z,38.86
2023-03-23T02:41:02.052Z,38.87
2023-03-23T02:42:03.098Z,38.86
2023-03-23T02:43:03.045Z,38.88
2023-03-23T02:44:03.034Z,38.85
2023-03-23T02:45:03.045Z,38.85
2023-03-23T02:46:03.027Z,38.86
2023-03-23T02:47:02.013Z,38.86
2023-03-23T02:48:02.002Z,38.84
2023-03-23T02:49:02.977Z,38.82
2023-03-23T02:50:02.003Z,38.83
2023-03-23T02:51:02.974Z,38.80
2023-03-23T02:52:02.961Z,38.82
2023-03-23T02:53:02.956Z,38.81
2023-03-23T02:54:01.971Z,38.80
2023-03-23T02:55:01.972Z,38.81
2023-03-23T02:56:02.949Z,38.82
2023-03-23T02:57:02.918Z,38.83
2023-03-23T02:58:02.925Z,38.83
2023-03-23T02:59:02.947Z,38.83
2023-03-23T03:00:02.940Z,38.80
2023-03-23T03:01:03.010Z,38.82
2023-03-23T03:02:02.904Z,38.79
2023-03-23T03:03:02.896Z,38.80
2023-03-23T03:04:02.885Z,38.85
2023-03-23T03:05:03.183Z,38.81
2023-03-23T03:06:02.870Z,38.83
2023-03-23T03:07:02.860Z,38.79
2023-03-23T03:08:02.859Z,38.81
2023-03-23T03:09:02.858Z,38.81
2023-03-23T03:10:02.849Z,38.80
2023-03-23T03:11:02.881Z,38.79
2023-03-23T03:12:02.850Z,38.81
2023-03-23T03:13:02.846Z,38.77
2023-03-23T03:14:02.826Z,38.80
2023-03-23T03:15:02.826Z,38.78
2023-03-23T03:16:02.823Z,38.80
2023-03-23T03:17:01.827Z,38.82
2023-03-23T03:18:02.804Z,38.83
2023-03-23T03:19:02.809Z,38.80
2023-03-23T03:20:01.816Z,38.81
2023-03-23T03:21:02.820Z,38.81
2023-03-23T03:22:02.834Z,38.79
2023-03-23T03:23:02.820Z,38.78
2023-03-23T03:24:02.823Z,38.79
2023-03-23T03:25:18.146Z,38.79
2023-03-23T03:26:02.805Z,38.85
2023-03-23T03:27:02.795Z,38.83
2023-03-23T03:28:04.162Z,38.84
2023-03-23T03:29:02.794Z,38.81
2023-03-23T03:30:02.785Z,38.81
2023-03-23T03:31:01.776Z,38.80
2023-03-23T03:32:02.766Z,38.81
2023-03-23T03:33:02.820Z,38.77
2023-03-23T03:34:02.806Z,38.77
2023-03-23T03:35:02.834Z,38.77
2023-03-23T03:36:02.811Z,38.77
2023-03-23T03:37:02.801Z,38.75
2023-03-23T03:38:01.816Z,38.77
2023-03-23T03:39:02.847Z,38.78
2023-03-23T03:40:01.848Z,38.80
2023-03-23T03:41:02.855Z,38.79
2023-03-23T03:42:01.850Z,38.81
2023-03-23T03:43:02.867Z,38.81
2023-03-23T03:44:01.877Z,38.82
2023-03-23T03:45:01.907Z,38.82
2023-03-23T03:46:02.912Z,38.80
2023-03-23T03:47:01.902Z,38.81
2023-03-23T03:48:02.902Z,38.82
2023-03-23T03:49:02.941Z,38.80
2023-03-23T03:50:02.920Z,38.81
2023-03-23T03:51:02.891Z,38.80
2023-03-23T03:52:02.115Z,38.80
2023-03-23T03:53:02.139Z,38.80
2023-03-23T03:54:03.151Z,38.82
2023-03-23T03:55:02.157Z,38.81
2023-03-23T03:56:03.194Z,38.79
2023-03-23T03:57:03.210Z,38.77
2023-03-23T03:58:03.252Z,38.80
2023-03-23T03:59:21.614Z,38.79
2023-03-23T04:00:03.276Z,38.79
2023-03-23T04:01:03.265Z,38.79
2023-03-23T04:02:02.223Z,38.78
2023-03-23T04:03:03.237Z,38.78
2023-03-23T04:04:03.230Z,38.77
2023-03-23T04:05:03.236Z,38.77
2023-03-23T04:06:03.225Z,38.78
2023-03-23T04:07:03.198Z,38.78
2023-03-23T04:08:09.766Z,38.79
2023-03-23T04:09:07.640Z,38.77
2023-03-23T04:10:03.181Z,38.79
2023-03-23T04:11:02.178Z,38.80
2023-03-23T04:12:03.167Z,38.77
2023-03-23T04:13:03.147Z,38.75
2023-03-23T04:14:02.152Z,38.79
2023-03-23T04:15:06.335Z,38.80
2023-03-23T04:16:07.159Z,38.80
2023-03-23T04:17:03.174Z,38.82
2023-03-23T04:18:03.115Z,38.79
2023-03-23T04:19:02.093Z,38.82
2023-03-23T04:20:03.094Z,38.80
2023-03-23T04:21:04.475Z,38.81
2023-03-23T04:22:02.105Z,38.78
2023-03-23T04:23:03.130Z,38.78
2023-03-23T04:24:02.083Z,38.83
2023-03-23T04:25:03.069Z,38.85
2023-03-23T04:26:02.060Z,38.83
2023-03-23T04:27:03.084Z,38.79
2023-03-23T04:28:03.050Z,38.78
2023-03-23T04:29:03.044Z,38.77
2023-03-23T04:30:03.048Z,38.75
2023-03-23T04:31:06.117Z,38.76
2023-03-23T04:32:02.015Z,38.75
2023-03-23T04:33:03.003Z,38.75
2023-03-23T04:34:03.035Z,38.78
2023-03-23T04:35:12.738Z,38.76
2023-03-23T04:36:03.008Z,38.79
2023-03-23T04:37:03.016Z,38.75
2023-03-23T04:38:01.972Z,38.75
2023-03-23T04:39:02.960Z,38.71
2023-03-23T04:40:02.959Z,38.73
2023-03-23T04:41:02.951Z,38.71
2023-03-23T04:42:03.052Z,38.68
2023-03-23T04:43:02.973Z,38.69
2023-03-23T04:44:02.948Z,38.68
2023-03-23T04:45:02.916Z,38.64
2023-03-23T04:46:02.912Z,38.67
2023-03-23T04:47:02.921Z,38.70
2023-03-23T04:48:02.913Z,38.65
2023-03-23T04:49:02.908Z,38.63
2023-03-23T04:50:02.907Z,38.71
2023-03-23T04:51:02.898Z,38.65
2023-03-23T04:52:02.895Z,38.64
2023-03-23T04:53:02.899Z,38.69
2023-03-23T04:54:01.885Z,38.69
2023-03-23T04:55:01.867Z,38.66
2023-03-23T04:56:02.863Z,38.67
2023-03-23T04:57:02.859Z,38.65
2023-03-23T04:58:01.830Z,38.66
2023-03-23T04:59:02.858Z,38.66
2023-03-23T05:00:02.887Z,38.64
2023-03-23T05:01:02.917Z,38.62
2023-03-23T05:02:14.809Z,38.59
2023-03-23T05:03:02.896Z,38.60
2023-03-23T05:04:01.892Z,38.55
2023-03-23T05:05:02.851Z,38.55
2023-03-23T05:06:02.876Z,38.53
2023-03-23T05:07:02.863Z,38.54
2023-03-23T05:08:02.843Z,38.55
2023-03-23T05:09:01.851Z,38.49
2023-03-23T05:10:02.838Z,38.46
2023-03-23T05:11:02.828Z,38.46
2023-03-23T05:12:02.841Z,38.42
2023-03-23T05:13:02.798Z,38.43
2023-03-23T05:14:02.790Z,38.40
2023-03-23T05:15:02.785Z,38.41
2023-03-23T05:16:02.798Z,38.43
2023-03-23T05:17:02.791Z,38.45
2023-03-23T05:18:02.784Z,38.45
2023-03-23T05:19:02.768Z,38.48
2023-03-23T05:20:02.784Z,38.47
2023-03-23T05:21:02.770Z,38.45
2023-03-23T05:22:02.749Z,38.48
2023-03-23T05:23:02.733Z,38.47
2023-03-23T05:24:02.735Z,38.46
2023-03-23T05:25:02.752Z,38.44
2023-03-23T05:26:02.756Z,38.39
2023-03-23T05:27:02.725Z,38.42
2023-03-23T05:28:02.711Z,38.39
2023-03-23T05:29:02.762Z,38.38
2023-03-23T05:30:01.709Z,38.38
2023-03-23T05:31:02.703Z,38.36
2023-03-23T05:32:02.708Z,38.39
2023-03-23T05:33:02.685Z,38.37
2023-03-23T05:34:02.659Z,38.33
2023-03-23T05:35:02.678Z,38.33
2023-03-23T05:36:02.700Z,38.32
2023-03-23T05:37:02.659Z,38.29
2023-03-23T05:38:02.651Z,38.29
2023-03-23T05:39:02.623Z,38.26
2023-03-23T05:40:02.618Z,38.24
2023-03-23T05:41:02.633Z,38.24
2023-03-23T05:42:01.627Z,38.26
2023-03-23T05:43:01.609Z,38.24
2023-03-23T05:44:02.585Z,38.23
2023-03-23T05:45:01.587Z,38.22
2023-03-23T05:46:02.582Z,38.21
2023-03-23T05:47:01.587Z,38.18
2023-03-23T05:48:02.562Z,38.21
2023-03-23T05:49:01.554Z,38.18
2023-03-23T05:50:02.571Z,38.18
2023-03-23T05:51:01.547Z,38.17
2023-03-23T05:52:02.570Z,38.16
2023-03-23T05:53:01.536Z,38.14
2023-03-23T05:54:01.518Z,38.15
2023-03-23T05:55:01.527Z,38.17
2023-03-23T05:56:02.519Z,38.18
2023-03-23T05:57:02.524Z,38.15
2023-03-23T05:58:02.502Z,38.16
2023-03-23T05:59:02.504Z,38.14
2023-03-23T06:00:02.500Z,38.16
2023-03-23T06:01:02.481Z,38.15
2023-03-23T06:02:01.488Z,38.21
2023-03-23T06:03:02.495Z,38.22
2023-03-23T06:04:01.456Z,38.20
2023-03-23T06:05:02.447Z,38.17
2023-03-23T06:06:02.469Z,38.18
2023-03-23T06:07:02.462Z,38.18
2023-03-23T06:10:01.472Z,38.18
2023-03-23T06:12:01.419Z,38.20
2023-03-23T06:13:02.428Z,38.21
2023-03-23T06:14:02.415Z,38.17
2023-03-23T06:15:02.456Z,38.16
2023-03-23T06:19:01.356Z,38.14
2023-03-23T06:20:02.402Z,38.10
2023-03-23T06:21:02.451Z,38.13
2023-03-23T06:24:01.326Z,38.16
2023-03-23T06:25:02.310Z,38.14
2023-03-23T06:26:04.274Z,38.14
2023-03-23T06:27:02.411Z,38.16
2023-03-23T06:28:02.311Z,38.22
2023-03-23T06:29:02.336Z,38.42
2023-03-23T06:30:03.274Z,38.40
2023-03-23T06:34:01.252Z,38.30
2023-03-23T06:35:02.258Z,38.26
2023-03-23T06:36:02.276Z,38.26
2023-03-23T06:37:02.386Z,38.23
2023-03-23T06:38:02.233Z,38.27
2023-03-23T06:39:02.271Z,38.26
2023-03-23T06:40:02.349Z,38.29
2023-03-23T06:41:02.427Z,38.40
2023-03-23T06:42:02.422Z,38.38
2023-03-23T06:44:01.342Z,38.45
2023-03-23T06:45:02.369Z,38.45
2023-03-23T06:48:01.325Z,38.27
2023-03-23T06:49:02.333Z,39.04
2023-03-23T06:50:02.290Z,40.31
2023-03-23T06:51:02.307Z,41.98
2023-03-23T06:52:02.294Z,42.31
2023-03-23T06:53:02.319Z,43.31
2023-03-23T06:54:02.278Z,43.97
2023-03-23T06:57:01.266Z,43.09
2023-03-23T06:58:02.259Z,42.89
2023-03-23T07:00:01.226Z,43.81
2023-03-23T07:01:02.297Z,44.88
2023-03-23T07:03:01.590Z,44.85
2023-03-23T07:04:02.222Z,44.32
2023-03-23T07:08:01.196Z,42.10
2023-03-23T07:09:02.178Z,41.85
2023-03-23T07:10:02.182Z,41.75
2023-03-23T07:11:02.179Z,41.70
2023-03-23T07:12:02.167Z,41.43
2023-03-23T07:16:01.445Z,40.95
2023-03-23T07:17:01.507Z,40.93
2023-03-23T07:18:02.259Z,40.69
2023-03-23T07:19:01.249Z,40.62
2023-03-23T07:20:02.446Z,40.59
2023-03-23T07:25:01.587Z,40.37
2023-03-23T07:26:02.550Z,40.38
2023-03-23T07:27:02.561Z,40.30
2023-03-23T07:29:02.319Z,40.16
2023-03-23T07:30:02.656Z,40.19
2023-03-23T07:31:02.739Z,40.18
2023-03-23T07:32:02.790Z,40.21
2023-03-23T07:35:02.009Z,40.17
2023-03-23T07:36:02.997Z,40.19
2023-03-23T07:37:02.991Z,40.19
2023-03-23T07:38:03.012Z,40.20
2023-03-23T07:40:01.994Z,40.15
2023-03-23T07:41:02.972Z,40.14
2023-03-23T07:43:01.925Z,40.15
2023-03-23T07:44:02.905Z,40.12
2023-03-23T07:45:02.949Z,40.12
2023-03-23T07:47:02.113Z,40.17
2023-03-23T07:48:07.276Z,40.14
2023-03-23T07:49:03.146Z,40.14
2023-03-23T07:53:03.307Z,40.17
2023-03-23T07:54:04.573Z,39.95
2023-03-23T08:01:39.861Z,40.81
2023-03-23T08:02:39.869Z,40.63
2023-03-23T08:03:40.859Z,40.95
2023-03-23T08:04:40.875Z,40.71
2023-03-23T08:05:40.251Z,40.77
2023-03-23T08:06:40.837Z,40.95
2023-03-23T08:10:39.946Z,41.05
2023-03-23T08:11:40.794Z,40.85
2023-03-23T08:12:40.805Z,40.88
2023-03-23T08:13:40.823Z,40.95
2023-03-23T08:14:40.778Z,41.20
2023-03-23T08:18:39.754Z,41.21
2023-03-23T08:19:40.781Z,41.33
2023-03-23T08:21:39.970Z,41.45
2023-03-23T08:22:48.022Z,41.33
2023-03-23T08:23:40.722Z,41.19
2023-03-23T08:28:39.691Z,41.43
2023-03-23T08:29:40.683Z,41.79
2023-03-23T08:30:40.681Z,41.81
2023-03-23T08:31:40.671Z,41.82
2023-03-23T08:34:39.892Z,41.99
2023-03-23T08:35:40.930Z,42.06
2023-03-23T08:36:40.661Z,42.09
2023-03-23T08:40:39.600Z,42.02
2023-03-23T08:41:40.626Z,42.37
2023-03-23T08:46:39.569Z,42.95
2023-03-23T08:47:40.567Z,42.47
2023-03-23T08:48:40.597Z,42.25
2023-03-23T08:49:40.538Z,42.12
2023-03-23T08:53:39.608Z,42.31
2023-03-23T08:55:39.817Z,42.31
2023-03-23T08:56:40.526Z,42.52
2023-03-23T08:59:39.475Z,42.59
2023-03-23T09:02:39.457Z,42.62
2023-03-23T09:03:40.490Z,42.61
2023-03-23T09:04:39.488Z,42.61
2023-03-23T09:05:40.757Z,42.60
2023-03-23T09:06:40.515Z,42.64
2023-03-23T09:07:40.560Z,42.61
2023-03-23T09:08:40.649Z,42.58
2023-03-23T09:09:40.647Z,42.61
2023-03-23T09:12:39.605Z,42.59
2023-03-23T09:13:40.615Z,42.72
2023-03-23T09:19:39.562Z,42.69
2023-03-23T09:20:40.557Z,42.62
2023-03-23T09:21:40.549Z,42.57
2023-03-23T09:22:40.544Z,42.58
2023-03-23T09:23:40.553Z,42.59
2023-03-23T09:24:40.580Z,42.67
2023-03-23T09:25:40.748Z,42.62
2023-03-23T09:28:39.519Z,42.57
2023-03-23T09:29:40.496Z,42.60
2023-03-23T09:30:52.852Z,42.54
2023-03-23T09:31:40.490Z,42.62
2023-03-23T09:32:40.496Z,42.60
2023-03-23T09:35:39.530Z,42.56
2023-03-23T09:36:40.466Z,42.53
2023-03-23T09:39:39.434Z,42.49
2023-03-23T09:40:40.490Z,42.44
2023-03-23T09:41:40.428Z,42.43
2023-03-23T09:47:39.399Z,42.72
2023-03-23T09:48:40.382Z,42.40
2023-03-23T09:49:42.113Z,41.99
2023-03-23T09:50:40.398Z,42.24
2023-03-23T09:53:39.341Z,41.58
2023-03-23T09:54:40.383Z,41.88
2023-03-23T09:56:39.344Z,41.79
2023-03-23T09:57:40.328Z,41.64
2023-03-23T09:58:40.322Z,41.69
2023-03-23T09:59:40.304Z,41.69
2023-03-23T10:02:39.299Z,41.54
2023-03-23T10:05:39.342Z,41.24
2023-03-23T10:06:40.260Z,41.09
2023-03-23T10:09:39.266Z,40.92
2023-03-23T10:10:40.240Z,41.02
2023-03-23T10:14:39.224Z,40.77
2023-03-23T10:15:40.585Z,40.60
2023-03-23T10:16:40.195Z,40.44
2023-03-23T10:19:39.171Z,40.43
2023-03-23T10:20:40.180Z,40.56
2023-03-23T10:21:40.183Z,40.55
2023-03-23T10:25:39.194Z,40.40
2023-03-23T10:26:39.141Z,40.24
2023-03-23T10:28:39.163Z,40.14
2023-03-23T10:29:40.138Z,39.87
2023-03-23T10:32:39.106Z,39.91
2023-03-23T10:33:40.113Z,39.81
2023-03-23T10:35:39.175Z,39.80
2023-03-23T10:36:40.081Z,39.72
2023-03-23T10:37:40.085Z,39.72
2023-03-23T10:42:39.059Z,39.76
2023-03-23T10:43:40.156Z,39.93
2023-03-23T10:44:40.212Z,39.92
2023-03-23T10:45:48.835Z,39.94
2023-03-23T10:49:39.229Z,40.15
2023-03-23T10:50:40.227Z,40.05
2023-03-23T10:51:40.253Z,40.35
2023-03-23T10:52:40.232Z,40.15
2023-03-23T10:56:56.084Z,41.13
2023-03-23T10:57:40.189Z,41.32
2023-03-23T10:58:40.173Z,39.73
2023-03-23T11:01:39.142Z,39.31
2023-03-23T11:02:40.149Z,39.28
2023-03-23T11:03:40.153Z,39.35
2023-03-23T11:06:39.125Z,39.39
2023-03-23T11:07:39.113Z,39.07
2023-03-23T11:08:39.122Z,38.84
2023-03-23T11:09:40.149Z,38.79
2023-03-23T11:10:40.173Z,38.72
2023-03-23T11:11:40.223Z,38.61
2023-03-23T11:12:40.227Z,38.79
2023-03-23T11:13:40.254Z,39.09
2023-03-23T11:14:40.277Z,39.00
2023-03-23T11:15:40.437Z,39.40
2023-03-23T11:16:40.332Z,39.14
2023-03-23T11:17:40.303Z,38.86
2023-03-23T11:21:39.325Z,38.69
2023-03-23T11:22:40.325Z,38.77
2023-03-23T11:23:40.343Z,38.71
2023-03-23T11:24:40.356Z,38.63
2023-03-23T11:25:40.735Z,38.58
2023-03-23T11:26:43.157Z,38.70
2023-03-23T11:27:41.386Z,38.76
2023-03-23T11:29:39.332Z,38.47
2023-03-23T11:30:39.886Z,38.66
2023-03-23T11:31:40.348Z,38.66
2023-03-23T11:32:40.361Z,38.42
2023-03-23T11:36:39.289Z,38.63
2023-03-23T11:37:40.292Z,38.53
2023-03-23T11:38:40.294Z,38.56
2023-03-23T11:40:39.283Z,38.53
2023-03-23T11:41:40.265Z,38.57
2023-03-23T11:43:39.234Z,37.94
2023-03-23T11:44:40.247Z,38.45
2023-03-23T11:45:40.583Z,38.71
2023-03-23T11:48:39.238Z,38.85
2023-03-23T11:49:40.210Z,38.83
2023-03-23T11:50:40.184Z,38.88
2023-03-23T11:53:39.179Z,38.93
2023-03-23T11:54:40.198Z,39.00
2023-03-23T11:58:39.145Z,39.01
2023-03-23T11:59:39.131Z,39.04
2023-03-23T12:02:39.131Z,39.06
2023-03-23T12:03:40.123Z,39.05
2023-03-23T12:04:40.161Z,39.07
2023-03-23T12:05:40.426Z,39.08
2023-03-23T12:06:40.090Z,39.13
2023-03-23T12:07:40.116Z,39.15
2023-03-23T12:09:39.088Z,39.20
2023-03-23T12:10:46.052Z,39.23
2023-03-23T12:11:40.081Z,39.27
2023-03-23T12:16:39.036Z,39.40
2023-03-23T12:17:40.027Z,39.44
2023-03-23T12:18:40.016Z,39.50
2023-03-23T12:19:40.019Z,39.46
2023-03-23T12:22:38.989Z,39.40
2023-03-23T12:23:39.981Z,39.41
2023-03-23T12:24:40.005Z,39.41
2023-03-23T12:26:38.991Z,39.43
2023-03-23T12:27:39.949Z,39.44
2023-03-23T12:30:38.926Z,39.47
2023-03-23T12:31:39.945Z,39.48
2023-03-23T12:33:38.929Z,39.52
2023-03-23T12:34:38.903Z,39.51
2023-03-23T12:35:39.899Z,39.50
2023-03-23T12:36:39.916Z,39.51
2023-03-23T12:38:38.892Z,39.52
2023-03-23T12:39:39.896Z,39.54
2023-03-23T12:40:39.964Z,39.53
2023-03-23T12:43:38.837Z,39.54
2023-03-23T12:44:39.863Z,39.52
2023-03-23T12:45:39.844Z,39.55
2023-03-23T12:50:38.804Z,39.54
2023-03-23T12:51:39.806Z,39.53
2023-03-23T12:52:39.810Z,39.54
2023-03-23T12:53:39.789Z,39.55
2023-03-23T12:54:38.782Z,39.55
2023-03-23T12:55:38.773Z,39.51
2023-03-23T12:56:39.756Z,39.54
2023-03-23T12:57:39.758Z,39.54
2023-03-23T12:58:39.822Z,39.56
2023-03-23T13:04:38.724Z,39.57
2023-03-23T13:05:39.701Z,39.56
2023-03-23T13:07:38.688Z,39.59
2023-03-23T13:08:39.729Z,39.59
2023-03-23T13:11:38.651Z,39.59
2023-03-23T13:12:39.651Z,39.59
2023-03-23T13:16:38.630Z,39.64
2023-03-23T13:18:38.631Z,39.63
2023-03-23T13:19:39.611Z,39.63
2023-03-23T13:20:39.714Z,39.66
2023-03-23T13:21:39.698Z,39.65
2023-03-23T13:22:39.593Z,40.10
2023-03-23T13:23:39.587Z,40.04
2023-03-23T13:24:39.596Z,39.95
2023-03-23T13:28:38.565Z,39.87
2023-03-23T13:29:38.543Z,40.40
2023-03-23T13:32:43.641Z,40.12
2023-03-23T13:33:39.517Z,40.16
2023-03-23T13:35:38.513Z,40.33
2023-03-23T13:36:39.503Z,40.37
2023-03-23T13:41:38.479Z,40.50
2023-03-23T13:42:38.465Z,40.57
2023-03-23T13:43:39.447Z,40.64
2023-03-23T13:46:38.416Z,40.64
2023-03-23T13:47:39.439Z,40.69
2023-03-23T13:48:39.405Z,40.69
2023-03-23T13:49:39.431Z,40.72
2023-03-23T13:54:38.372Z,40.76
2023-03-23T13:55:39.389Z,40.79
2023-03-23T13:56:38.397Z,40.81
2023-03-23T13:57:39.358Z,40.79
2023-03-23T13:58:39.359Z,40.78
2023-03-23T13:59:39.344Z,40.83
2023-03-23T14:00:39.348Z,40.84
2023-03-23T14:01:39.332Z,40.88
2023-03-23T14:02:39.338Z,40.92
2023-03-23T14:07:38.440Z,40.86
2023-03-23T14:08:39.392Z,40.85
2023-03-23T14:09:39.388Z,40.87
2023-03-23T14:10:39.404Z,40.92
2023-03-23T14:11:39.416Z,40.90
2023-03-23T14:12:39.469Z,40.92
2023-03-23T14:13:39.434Z,41.02
2023-03-23T14:14:39.459Z,40.96
2023-03-23T14:15:39.541Z,40.96
2023-03-23T14:18:38.482Z,40.96
2023-03-23T14:19:39.490Z,40.95
2023-03-23T14:20:39.517Z,40.94
2023-03-23T14:21:39.531Z,40.97
2023-03-23T14:22:39.560Z,40.97
2023-03-23T14:23:39.599Z,40.99
2023-03-23T14:25:38.637Z,40.97
2023-03-23T14:26:39.650Z,40.99
2023-03-23T14:27:39.676Z,40.96
2023-03-23T14:28:39.708Z,41.03
2023-03-23T14:29:39.712Z,41.04
2023-03-23T14:30:39.740Z,41.06
2023-03-23T14:34:38.830Z,41.01
2023-03-23T14:35:39.853Z,41.02
2023-03-23T14:36:39.895Z,41.02
2023-03-23T14:37:39.899Z,41.05
2023-03-23T14:38:39.923Z,41.03
2023-03-23T14:39:39.950Z,41.05
2023-03-23T14:40:39.977Z,41.05
2023-03-23T14:41:40.024Z,41.06
2023-03-23T14:42:40.041Z,41.08
2023-03-23T14:43:40.074Z,41.12
2023-03-23T14:44:40.121Z,41.10
2023-03-23T14:45:40.139Z,41.05
2023-03-23T14:46:40.161Z,41.06
2023-03-23T14:47:40.178Z,41.08
2023-03-23T14:48:40.233Z,41.06
2023-03-23T14:49:40.253Z,41.08
2023-03-23T14:51:39.301Z,41.02
2023-03-23T14:52:40.316Z,41.03
2023-03-23T14:53:40.347Z,41.06
2023-03-23T14:54:40.366Z,41.06
2023-03-23T14:55:40.391Z,41.07
2023-03-23T14:56:40.408Z,41.08
2023-03-23T14:57:40.429Z,41.12
2023-03-23T14:58:40.439Z,41.05
2023-03-23T14:59:40.452Z,41.06
2023-03-23T15:00:40.499Z,41.07
2023-03-23T15:01:40.485Z,41.06
2023-03-23T15:07:39.621Z,41.12
2023-03-23T15:08:40.647Z,41.11
2023-03-23T15:09:40.664Z,41.13
2023-03-23T15:10:40.703Z,41.09
2023-03-23T15:11:40.724Z,41.08
2023-03-23T15:16:39.835Z,41.10
2023-03-23T15:17:40.825Z,41.10
2023-03-23T15:18:40.869Z,41.09
2023-03-23T15:19:40.878Z,41.11
2023-03-23T15:20:40.908Z,41.12
2023-03-23T15:21:40.929Z,41.14
2023-03-23T15:22:40.960Z,41.11
2023-03-23T15:23:40.974Z,41.12
2023-03-23T15:24:40.990Z,41.11
2023-03-23T15:25:41.038Z,41.11
2023-03-23T15:26:41.028Z,41.11
2023-03-23T15:27:41.060Z,41.12
2023-03-23T15:28:41.084Z,41.09
2023-03-23T15:29:41.095Z,41.07
2023-03-23T15:30:41.136Z,41.07
2023-03-23T15:31:41.166Z,41.09
2023-03-23T15:32:41.181Z,41.09
2023-03-23T15:33:41.186Z,41.08
2023-03-23T15:34:41.158Z,41.10
2023-03-23T15:35:41.211Z,41.09
2023-03-23T15:39:40.135Z,41.12
2023-03-23T15:40:41.331Z,41.18
2023-03-23T15:41:41.138Z,41.16
2023-03-23T15:42:40.121Z,41.13
2023-03-23T15:43:40.128Z,41.16
2023-03-23T15:47:41.023Z,41.19
2023-03-23T15:48:41.082Z,41.18
2023-03-23T15:49:41.058Z,41.18
2023-03-23T15:50:41.053Z,41.18
2023-03-23T15:51:41.063Z,41.21
2023-03-23T15:52:41.055Z,41.17
2023-03-23T15:56:40.009Z,41.20
2023-03-23T16:02:40.073Z,41.20
2023-03-23T16:03:41.001Z,41.20
2023-03-23T16:04:43.188Z,41.20
2023-03-23T16:05:41.373Z,41.24
2023-03-23T16:06:40.959Z,41.19
2023-03-23T16:10:39.951Z,41.19
2023-03-23T16:11:40.919Z,41.17
2023-03-23T16:12:40.937Z,41.14
2023-03-23T16:13:40.909Z,41.14
2023-03-23T16:14:39.909Z,41.17
2023-03-23T16:15:41.010Z,41.16
2023-03-23T16:21:40.154Z,41.21
2023-03-23T16:22:41.206Z,41.22
2023-03-23T16:23:41.281Z,41.20
2023-03-23T16:24:41.332Z,41.20
2023-03-23T16:25:41.552Z,41.17
2023-03-23T16:26:41.471Z,41.19
2023-03-23T16:27:41.519Z,41.23
2023-03-23T16:28:41.583Z,41.18
2023-03-23T16:30:52.852Z,41.16
2023-03-23T16:31:41.693Z,41.21
2023-03-23T16:32:44.764Z,41.20
2023-03-23T16:33:41.664Z,41.22
2023-03-23T16:34:40.666Z,41.20
2023-03-23T16:35:41.963Z,41.16
2023-03-23T16:36:40.651Z,41.24
2023-03-23T16:37:41.648Z,41.22
2023-03-23T16:38:51.086Z,41.22
2023-03-23T16:39:41.638Z,41.28
2023-03-23T16:40:41.871Z,41.25
2023-03-23T16:41:41.627Z,41.28
2023-03-23T16:42:41.623Z,41.26
2023-03-23T16:43:40.612Z,41.25